createdAt,value
2019-02-03T00:04:36.959Z,93934.00
2019-02-03T00:07:26.509Z,93941.00
2019-02-03T00:10:08.319Z,93946.00
2019-02-03T00:12:57.853Z,93945.00
2019-02-03T00:15:41.561Z,93948.00
2019-02-03T00:18:31.071Z,93954.00
2019-02-03T00:21:13.538Z,93960.00
2019-02-03T00:24:03.073Z,93961.00
2019-02-03T00:26:45.141Z,93943.00
2019-02-03T00:29:34.739Z,93949.00
2019-02-03T00:32:16.452Z,93942.00
2019-02-03T00:34:58.310Z,93943.00
2019-02-03T00:37:48.090Z,93949.00
2019-02-03T00:40:30.903Z,93953.00
2019-02-03T00:46:28.366Z,93970.00
2019-02-03T00:49:17.868Z,93961.00
2019-02-03T00:52:07.402Z,93949.00
2019-02-03T00:54:49.847Z,93958.00
2019-02-03T00:57:39.386Z,93960.00
2019-02-03T01:00:28.986Z,93963.00
2019-02-03T01:03:37.396Z,93954.00
2019-02-03T01:06:20.908Z,93957.00
2019-02-03T01:12:20.297Z,93966.00
2019-02-03T01:15:21.261Z,93964.00
2019-02-03T01:18:04.043Z,93965.00
2019-02-03T01:20:53.569Z,93973.00
2019-02-03T01:23:35.271Z,93978.00
2019-02-03T01:29:39.862Z,93979.00
2019-02-03T01:32:23.945Z,93973.00
2019-02-03T01:38:21.311Z,93977.00
2019-02-03T01:44:12.165Z,93975.00
2019-02-03T01:46:54.057Z,93969.00
2019-02-03T01:52:44.868Z,93977.00
2019-02-03T01:55:26.960Z,93995.00
2019-02-03T01:58:16.354Z,93983.00
2019-02-03T02:00:59.030Z,93981.00
2019-02-03T02:06:54.903Z,93980.00
2019-02-03T02:09:44.423Z,93975.00
2019-02-03T02:12:52.945Z,93980.00
2019-02-03T02:15:41.576Z,93978.00
2019-02-03T02:18:51.738Z,93976.00
2019-02-03T02:21:34.340Z,93987.00
2019-02-03T02:24:23.857Z,93983.00
2019-02-03T02:27:13.411Z,93982.00
2019-02-03T02:29:55.378Z,93992.00
2019-02-03T02:35:32.797Z,93972.00
2019-02-03T02:41:23.208Z,93975.00
2019-02-03T02:44:05.617Z,93970.00
2019-02-03T02:46:55.180Z,93977.00
2019-02-03T02:49:37.647Z,93976.00
2019-02-03T02:52:27.574Z,93982.00
2019-02-03T02:55:10.365Z,93992.00
2019-02-03T02:58:02.237Z,93996.00
2019-02-03T03:00:44.579Z,93987.00
2019-02-03T03:03:53.956Z,93986.00
2019-02-03T03:06:24.108Z,93991.00
2019-02-03T03:09:32.545Z,93991.00
2019-02-03T03:12:15.110Z,93982.00
2019-02-03T03:15:05.487Z,93997.00
2019-02-03T03:18:13.893Z,94007.00
2019-02-03T03:20:56.541Z,93997.00
2019-02-03T03:23:46.022Z,93992.00
2019-02-03T03:26:27.990Z,94002.00
2019-02-03T03:29:36.409Z,94004.00
2019-02-03T03:32:18.494Z,94002.00
2019-02-03T03:35:08.024Z,94011.00
2019-02-03T03:37:50.373Z,94008.00
2019-02-03T03:40:40.071Z,94022.00
2019-02-03T03:43:22.521Z,94020.00
2019-02-03T03:46:12.592Z,94017.00
2019-02-03T03:48:54.926Z,94026.00
2019-02-03T03:51:44.828Z,94019.00
2019-02-03T03:54:26.833Z,94029.00
2019-02-03T04:00:24.567Z,94005.00
2019-02-03T04:03:14.115Z,94012.00
2019-02-03T04:06:03.641Z,94035.00
2019-02-03T04:08:47.908Z,94046.00
2019-02-03T04:14:30.549Z,94024.00
2019-02-03T04:17:12.345Z,94031.00
2019-02-03T04:20:21.076Z,94037.00
2019-02-03T04:23:03.522Z,94044.00
2019-02-03T04:25:54.610Z,94058.00
2019-02-03T04:28:37.044Z,94059.00
2019-02-03T04:31:26.597Z,94060.00
2019-02-03T04:34:08.746Z,94069.00
2019-02-03T04:39:46.830Z,94084.00
2019-02-03T04:42:36.352Z,94073.00
2019-02-03T04:45:22.318Z,94072.00
2019-02-03T04:48:11.205Z,94080.00
2019-02-03T04:50:53.376Z,94072.00
2019-02-03T04:54:01.798Z,94081.00
2019-02-03T04:56:45.358Z,94086.00
2019-02-03T04:59:34.875Z,94093.00
2019-02-03T05:02:17.758Z,94097.00
2019-02-03T05:08:15.306Z,94104.00
2019-02-03T05:11:04.839Z,94108.00
2019-02-03T05:13:54.357Z,94114.00
2019-02-03T05:16:36.559Z,94119.00
2019-02-03T05:19:26.105Z,94121.00
2019-02-03T05:22:08.021Z,94114.00
2019-02-03T05:24:57.542Z,94125.00
2019-02-03T05:27:40.145Z,94133.00
2019-02-03T05:30:31.913Z,94131.00
2019-02-03T05:33:15.510Z,94129.00
2019-02-03T05:36:05.138Z,94131.00
2019-02-03T05:38:46.864Z,94128.00
2019-02-03T05:41:36.394Z,94130.00
2019-02-03T05:44:19.172Z,94141.00
2019-02-03T05:50:01.507Z,94139.00
2019-02-03T05:52:51.312Z,94147.00
2019-02-03T05:55:41.036Z,94157.00
2019-02-03T05:58:24.907Z,94152.00
2019-02-03T06:01:14.432Z,94151.00
2019-02-03T06:03:56.795Z,94160.00
2019-02-03T06:06:46.286Z,94168.00
2019-02-03T06:09:36.886Z,94168.00
2019-02-03T06:12:20.463Z,94169.00
2019-02-03T06:15:02.296Z,94170.00
2019-02-03T06:17:44.671Z,94180.00
2019-02-03T06:20:34.292Z,94190.00
2019-02-03T06:23:19.631Z,94189.00
2019-02-03T06:26:09.224Z,94200.00
2019-02-03T06:28:51.633Z,94197.00
2019-02-03T06:32:01.083Z,94218.00
2019-02-03T06:34:45.490Z,94217.00
2019-02-03T06:37:35.002Z,94226.00
2019-02-03T06:40:17.979Z,94228.00
2019-02-03T06:46:53.953Z,94246.00
2019-02-03T06:49:40.547Z,94252.00
2019-02-03T06:52:30.054Z,94242.00
2019-02-03T06:55:12.654Z,94249.00
2019-02-03T06:58:02.260Z,94256.00
2019-02-03T07:00:44.965Z,94268.00
2019-02-03T07:03:34.675Z,94272.00
2019-02-03T07:06:16.780Z,94279.00
2019-02-03T07:12:29.594Z,94289.00
2019-02-03T07:15:12.506Z,94297.00
2019-02-03T07:21:29.842Z,94322.00
2019-02-03T07:24:19.544Z,94323.00
2019-02-03T07:27:12.092Z,94324.00
2019-02-03T07:30:02.892Z,94334.00
2019-02-03T07:32:44.927Z,94342.00
2019-02-03T07:38:35.839Z,94335.00
2019-02-03T07:41:18.509Z,94349.00
2019-02-03T07:44:08.137Z,94345.00
2019-02-03T07:46:52.581Z,94355.00
2019-02-03T07:49:44.490Z,94359.00
2019-02-03T07:52:26.963Z,94369.00
2019-02-03T07:55:37.071Z,94372.00
2019-02-03T07:58:25.780Z,94377.00
2019-02-03T08:01:15.307Z,94385.00
2019-02-03T08:03:59.657Z,94392.00
2019-02-03T08:06:49.240Z,94394.00
2019-02-03T08:09:38.781Z,94397.00
2019-02-03T08:12:23.125Z,94399.00
2019-02-03T08:15:13.293Z,94413.00
2019-02-03T08:17:59.974Z,94417.00
2019-02-03T08:21:08.706Z,94417.00
2019-02-03T08:23:51.405Z,94435.00
2019-02-03T08:26:51.063Z,94437.00
2019-02-03T08:29:33.813Z,94450.00
2019-02-03T08:32:23.539Z,94464.00
2019-02-03T08:35:05.731Z,94459.00
2019-02-03T08:37:55.490Z,94472.00
2019-02-03T08:40:39.909Z,94466.00
2019-02-03T08:43:22.041Z,94475.00
2019-02-03T08:46:11.753Z,94481.00
2019-02-03T08:51:55.345Z,94497.00
2019-02-03T09:00:43.967Z,94505.00
2019-02-03T09:03:27.817Z,94522.00
2019-02-03T09:06:17.371Z,94532.00
2019-02-03T09:09:00.595Z,94532.00
2019-02-03T09:11:50.052Z,94541.00
2019-02-03T09:14:39.680Z,94554.00
2019-02-03T09:17:22.275Z,94550.00
2019-02-03T09:20:33.208Z,94559.00
2019-02-03T09:23:17.659Z,94565.00
2019-02-03T09:26:08.596Z,94563.00
2019-02-03T09:28:51.599Z,94568.00
2019-02-03T09:31:41.236Z,94581.00
2019-02-03T09:34:24.116Z,94590.00
2019-02-03T09:37:38.080Z,94596.00
2019-02-03T09:40:23.643Z,94607.00
2019-02-03T09:46:15.582Z,94610.00
2019-02-03T09:49:05.328Z,94618.00
2019-02-03T09:51:47.186Z,94629.00
2019-02-03T09:54:36.693Z,94634.00
2019-02-03T09:57:19.042Z,94647.00
2019-02-03T10:00:12.318Z,94642.00
2019-02-03T10:02:56.322Z,94646.00
2019-02-03T10:05:45.997Z,94664.00
2019-02-03T10:08:40.080Z,94658.00
2019-02-03T10:11:22.872Z,94670.00
2019-02-03T10:14:04.523Z,94670.00
2019-02-03T10:16:54.121Z,94676.00
2019-02-03T10:19:43.859Z,94669.00
2019-02-03T10:22:33.466Z,94680.00
2019-02-03T10:25:17.192Z,94685.00
2019-02-03T10:28:07.342Z,94680.00
2019-02-03T10:30:49.997Z,94680.00
2019-02-03T10:33:59.569Z,94694.00
2019-02-03T10:36:42.093Z,94694.00
2019-02-03T10:39:24.960Z,94695.00
2019-02-03T10:42:14.604Z,94683.00
2019-02-03T10:44:57.231Z,94698.00
2019-02-03T10:47:46.780Z,94701.00
2019-02-03T10:50:29.606Z,94701.00
2019-02-03T10:53:31.013Z,94703.00
2019-02-03T10:56:32.311Z,94707.00
2019-02-03T10:59:22.170Z,94709.00
2019-02-03T11:02:11.752Z,94714.00
2019-02-03T11:04:54.362Z,94708.00
2019-02-03T11:08:03.011Z,94726.00
2019-02-03T11:10:45.715Z,94714.00
2019-02-03T11:13:35.336Z,94722.00
2019-02-03T11:16:18.956Z,94720.00
2019-02-03T11:19:08.616Z,94728.00
2019-02-03T11:21:51.100Z,94724.00
2019-02-03T11:24:40.978Z,94742.00
2019-02-03T11:27:50.875Z,94729.00
2019-02-03T11:40:20.301Z,94741.00
2019-02-03T11:43:02.528Z,94751.00
2019-02-03T11:45:52.240Z,94749.00
2019-02-03T11:51:57.528Z,94765.00
2019-02-03T11:54:39.713Z,94786.00
2019-02-03T12:00:36.253Z,94806.00
2019-02-03T12:03:42.673Z,94799.00
2019-02-03T12:06:27.278Z,94807.00
2019-02-03T12:09:16.870Z,94813.00
2019-02-03T12:15:18.854Z,94817.00
2019-02-03T12:18:08.468Z,94818.00
2019-02-03T12:20:50.417Z,94829.00
2019-02-03T12:23:40.093Z,94836.00
2019-02-03T12:26:28.492Z,94830.00
2019-02-03T12:29:15.323Z,94824.00
2019-02-03T12:32:05.307Z,94848.00
2019-02-03T12:34:47.450Z,94852.00
2019-02-03T12:37:37.298Z,94852.00
2019-02-03T12:40:21.124Z,94867.00
2019-02-03T12:43:10.888Z,94863.00
2019-02-03T12:45:53.484Z,94864.00
2019-02-03T12:48:43.063Z,94866.00
2019-02-03T12:51:25.209Z,94876.00
2019-02-03T12:54:17.996Z,94890.00
2019-02-03T12:59:54.977Z,94893.00
2019-02-03T13:02:44.708Z,94914.00
2019-02-03T13:05:32.975Z,94912.00
2019-02-03T13:08:15.520Z,94928.00
2019-02-03T13:11:05.135Z,94928.00
2019-02-03T13:13:53.435Z,94922.00
2019-02-03T13:16:38.338Z,94950.00
2019-02-03T13:19:29.140Z,94952.00
2019-02-03T13:22:12.157Z,94954.00
2019-02-03T13:25:03.460Z,94966.00
2019-02-03T13:27:48.498Z,94961.00
2019-02-03T13:30:40.569Z,94970.00
2019-02-03T13:33:24.932Z,94983.00
2019-02-03T13:36:14.488Z,94982.00
2019-02-03T13:38:56.912Z,95004.00
2019-02-03T13:41:46.862Z,95006.00
2019-02-03T13:44:36.927Z,95012.00
2019-02-03T13:47:27.494Z,95022.00
2019-02-03T13:50:10.464Z,95017.00
2019-02-03T13:53:00.197Z,95025.00
2019-02-03T13:55:42.671Z,95027.00
2019-02-03T13:58:36.602Z,95034.00
2019-02-03T14:01:18.313Z,95047.00
2019-02-03T14:04:06.975Z,95047.00
2019-02-03T14:06:48.770Z,95072.00
2019-02-03T14:12:49.491Z,95068.00
2019-02-03T14:15:38.521Z,95085.00
2019-02-03T14:18:28.302Z,95093.00
2019-02-03T14:21:13.081Z,95095.00
2019-02-03T14:23:54.957Z,95103.00
2019-02-03T14:26:44.432Z,95094.00
2019-02-03T14:29:34.603Z,95108.00
2019-02-03T14:32:16.713Z,95107.00
2019-02-03T14:35:28.186Z,95112.00
2019-02-03T14:38:10.792Z,95123.00
2019-02-03T14:41:01.599Z,95122.00
2019-02-03T14:43:50.156Z,95134.00
2019-02-03T14:46:33.437Z,95145.00
2019-02-03T14:49:23.518Z,95142.00
2019-02-03T14:52:17.026Z,95148.00
2019-02-03T14:55:08.964Z,95160.00
2019-02-03T14:57:50.889Z,95174.00
2019-02-03T15:00:43.086Z,95175.00
2019-02-03T15:03:31.386Z,95179.00
2019-02-03T15:06:22.008Z,95179.00
2019-02-03T15:09:07.381Z,95185.00
2019-02-03T15:11:57.109Z,95186.00
2019-02-03T15:14:45.458Z,95206.00
2019-02-03T15:17:28.231Z,95205.00
2019-02-03T15:20:18.092Z,95217.00
2019-02-03T15:23:02.231Z,95217.00
2019-02-03T15:25:54.030Z,95233.00
2019-02-03T15:28:38.589Z,95232.00
2019-02-03T15:31:28.676Z,95246.00
2019-02-03T15:34:12.934Z,95243.00
2019-02-03T15:37:02.585Z,95240.00
2019-02-03T15:39:45.458Z,95243.00
2019-02-03T15:42:54.352Z,95250.00
2019-02-03T15:45:38.765Z,95258.00
2019-02-03T15:48:28.663Z,95263.00
2019-02-03T15:51:11.165Z,95253.00
2019-02-03T15:57:18.286Z,95290.00
2019-02-03T16:00:01.595Z,95291.00
2019-02-03T16:02:51.235Z,95304.00
2019-02-03T16:05:33.129Z,95305.00
2019-02-03T16:08:43.611Z,95328.00
2019-02-03T16:11:25.745Z,95321.00
2019-02-03T16:14:54.696Z,95325.00
2019-02-03T16:17:37.321Z,95339.00
2019-02-03T16:20:29.180Z,95342.00
2019-02-03T16:23:11.531Z,95340.00
2019-02-03T16:29:09.034Z,95365.00
2019-02-03T16:31:51.784Z,95377.00
2019-02-03T16:35:00.821Z,95379.00
2019-02-03T16:37:44.468Z,95398.00
2019-02-03T16:40:44.792Z,95402.00
2019-02-03T16:43:34.379Z,95404.00
2019-02-03T16:46:17.754Z,95401.00
2019-02-03T16:49:07.401Z,95407.00
2019-02-03T16:51:49.214Z,95415.00
2019-02-03T16:57:47.498Z,95434.00
2019-02-03T17:00:37.093Z,95447.00
2019-02-03T17:03:27.045Z,95446.00
2019-02-03T17:09:08.345Z,95474.00
2019-02-03T17:11:57.916Z,95482.00
2019-02-03T17:14:39.919Z,95487.00
2019-02-03T17:18:10.606Z,95490.00
2019-02-03T17:21:01.278Z,95516.00
2019-02-03T17:26:37.430Z,95515.00
2019-02-03T17:29:26.994Z,95523.00
2019-02-03T17:32:16.761Z,95525.00
2019-02-03T17:34:59.373Z,95532.00
2019-02-03T17:37:49.014Z,95545.00
2019-02-03T17:40:32.840Z,95543.00
2019-02-03T17:46:30.822Z,95551.00
2019-02-03T17:52:21.729Z,95568.00
2019-02-03T17:55:04.757Z,95569.00
2019-02-03T18:01:06.847Z,95587.00
2019-02-03T18:03:56.417Z,95594.00
2019-02-03T18:06:39.121Z,95594.00
2019-02-03T18:12:39.775Z,95599.00
2019-02-03T18:18:38.797Z,95618.00
2019-02-03T18:21:35.834Z,95632.00
2019-02-03T18:27:33.365Z,95643.00
2019-02-03T18:40:01.765Z,95655.00
2019-02-03T18:46:13.709Z,95670.00
2019-02-03T18:52:30.938Z,95690.00
2019-02-03T18:56:01.962Z,95695.00
2019-02-03T18:58:44.784Z,95691.00
2019-02-03T19:02:16.263Z,95692.00
2019-02-03T19:04:58.283Z,95705.00
2019-02-03T19:10:56.713Z,95725.00
2019-02-03T19:14:47.390Z,95717.00
2019-02-03T19:17:16.579Z,95729.00
2019-02-03T19:39:28.276Z,95772.00
2019-02-03T19:42:38.489Z,95762.00
2019-02-03T19:45:28.228Z,95765.00
2019-02-03T19:51:27.144Z,95793.00
2019-02-03T19:57:23.363Z,95811.00
2019-02-03T20:00:07.810Z,95797.00
2019-02-03T20:03:37.135Z,95814.00
2019-02-03T20:06:20.083Z,95831.00
2019-02-03T20:09:49.397Z,95828.00
2019-02-03T20:12:33.561Z,95831.00
2019-02-03T20:15:34.852Z,95841.00
2019-02-03T20:24:58.633Z,95858.00
2019-02-03T20:27:40.722Z,95867.00
2019-02-03T20:33:41.401Z,95874.00
2019-02-03T20:39:43.806Z,95885.00
2019-02-03T20:42:33.517Z,95895.00
2019-02-03T20:45:21.082Z,95893.00
2019-02-03T20:51:00.451Z,95900.00
2019-02-03T20:54:00.920Z,95908.00
2019-02-03T20:56:50.867Z,95916.00
2019-02-03T21:00:12.593Z,95920.00
2019-02-03T21:02:43.768Z,95924.00
2019-02-03T21:06:26.831Z,95927.00
2019-02-03T21:08:58.351Z,95947.00
2019-02-03T21:17:50.809Z,95953.00
2019-02-03T21:20:51.412Z,95965.00
2019-02-03T21:26:43.656Z,95957.00
2019-02-03T21:32:27.084Z,95983.00
2019-02-03T21:35:27.693Z,95980.00
2019-02-03T21:38:38.203Z,95991.00
2019-02-03T21:41:27.904Z,96000.00
2019-02-03T21:44:10.046Z,95996.00
2019-02-03T21:46:51.960Z,96019.00
2019-02-03T21:50:21.008Z,96009.00
2019-02-03T21:53:03.004Z,96024.00
2019-02-03T21:58:45.109Z,96039.00
2019-02-03T22:01:45.717Z,96043.00
2019-02-03T22:07:37.668Z,96042.00
2019-02-03T22:10:21.105Z,96040.00
2019-02-03T22:13:13.495Z,96045.00
2019-02-03T22:15:56.241Z,96051.00
2019-02-03T22:21:54.268Z,96068.00
2019-02-03T22:27:55.437Z,96089.00
2019-02-03T22:30:45.023Z,96085.00
2019-02-03T22:33:27.191Z,96092.00
2019-02-03T22:39:09.306Z,96100.00
2019-02-03T22:41:58.834Z,96107.00
2019-02-03T22:45:07.258Z,96120.00
2019-02-03T22:47:49.852Z,96124.00
2019-02-03T22:50:41.802Z,96131.00
2019-02-03T22:53:26.780Z,96141.00
2019-02-03T22:59:27.315Z,96149.00
2019-02-03T23:02:09.444Z,96149.00
2019-02-03T23:04:58.993Z,96156.00
2019-02-03T23:07:41.315Z,96165.00
2019-02-03T23:10:30.917Z,96167.00
2019-02-03T23:13:12.953Z,96165.00
2019-02-03T23:16:02.513Z,96183.00
2019-02-03T23:18:45.136Z,96167.00
2019-02-03T23:21:34.678Z,96172.00
2019-02-03T23:24:20.984Z,96179.00
2019-02-03T23:27:10.621Z,96184.00
2019-02-03T23:29:55.118Z,96196.00
2019-02-03T23:38:46.653Z,96198.00
2019-02-03T23:41:28.938Z,96206.00
2019-02-03T23:44:18.427Z,96201.00
2019-02-03T23:47:07.966Z,96209.00
2019-02-03T23:49:53.062Z,96216.00
2019-02-03T23:52:44.306Z,96209.00
2019-02-03T23:55:26.868Z,96215.00
